Terminal Aerodrome Forecast
Issued by NWS Grand Forks, ND

Home | Current Version | Previous Version | Graphics & Text | Print | Product List | Glossary On
Versions: 1 2 3 4 5 6 7 8 9 10 11 12 13 14 15
000
FTUS43 KFGF 011700
TAFFAR
TAF
KFAR 011720Z 0118/0218 26010KT P6SM SCT080
     FM012000 30012KT P6SM BKN040
     FM020200 28008KT P6SM SCT250
     FM020800 23006KT P6SM FEW250
     FM021400 17012G18KT P6SM SKC=

USA.gov is the U.S. government's official web portal to all federal, state and local government web resources and services.